Current | Forecast
Updated: 10:00 AM JST on December 11, 2017
Observed at Shonai Airport, Japan
Temperature 46°F
Windchill 37°F
Humidity 81%
Dew Point 41°F
Wind WSW at 30 mph
Wind Gust 44 mph
Pressure 29.65 in (Rising)
Conditions Light Rain Showers
Visibility 3.1 miles
UV 1 out of 16
Clouds (FEW) : 500 ft
Scattered Clouds (SCT) : 2000 ft
Mostly Cloudy (BKN) : 3000 ft
Yesterday's Maximum 41°F
Yesterday's Minimum 34°F approx.
Yesterday's Heating Degree Days 28 approx.
Sunrise6:48 AM JST
Sunset4:19 PM JST
Moon Rise
Moon Set12:33 PM JST
Moon PhaseMoon Phase
Last Quarter
Raw METARMETAR RJSY 110100Z 24026G38KT 5000 -SHRA BR FEW005 SCT020 BKN030 08/05 Q1004


Monday
. High: 71° F.
Tuesday
. High: 71° F.
Wednesday
. High: 59° F.
Thursday
. High: 62° F.
Friday
. High: 64° F.
Saturday
. High: 62° F.
Sunday
. High: 59° F.
Monday
. High: 57° F.

Units: English | Metric

Find the Weather for any City, State or Zipcode, or Country:

U.S. State List | Severe Weather | Tropical Storms | Ski Conditions
United States | Canada | Central America | South America | Asia | Europe | Australia | Africa | Islands

Weather Underground

© Copyright 2017
The Weather Company, LLC